<?xml version="1.0" encoding="UTF-8" standalone="no" ?>
<gpx xmlns="http://www.topografix.com/GPX/1/1" xmlns:xsi="http://www.w3.org/2001/XMLSchema-instance" xsi:schemaLocation="http://www.topografix.com/GPX/1/1 http://www.topografix.com/GPX/1/1/gpx.xsd" version="1.1" creator="VisuGPX - https://www.visugpx.com">
  <metadata>
    <name>Gruissan, Notre-Dame des Auzils, la Clape, l'étang et la tour </name>
    <desc><![CDATA[Visite de Notre-Dame des Auzils, de la Clape, des bords de l'étang  et de  la "tour Barberousse" de Gruissan. 

http://vttolonzac.blogspot.fr/2012/11/eo-oe-gruissan.html
]]></desc>
  </metadata>
  <trk>
    <name><![CDATA[Tracé 001]]></name>
    <trkseg>
      <trkpt lat="43.10832" lon="3.08688">
        <ele>0.62</ele>
        <time>2012-11-05T14:28:04Z</time>
      </trkpt>
      <trkpt lat="43.10831" lon="3.08694">
        <ele>1.58</ele>
        <time>2012-11-05T14:28:08Z</time>
      </trkpt>
      <trkpt lat="43.10821" lon="3.08709">
        <ele>1.1</ele>
        <time>2012-11-05T14:28:21Z</time>
      </trkpt>
      <trkpt lat="43.10819" lon="3.08713">
        <ele>1.1</ele>
        <time>2012-11-05T14:28:24Z</time>
      </trkpt>
      <trkpt lat="43.10819" lon="3.08719">
        <ele>1.58</ele>
        <time>2012-11-05T14:28:28Z</time>
      </trkpt>
      <trkpt lat="43.10818" lon="3.08722">
        <ele>1.1</ele>
        <time>2012-11-05T14:28:30Z</time>
      </trkpt>
      <trkpt lat="43.10818" lon="3.08728">
        <ele>1.1</ele>
        <time>2012-11-05T14:28:34Z</time>
      </trkpt>
      <trkpt lat="43.10816" lon="3.08732">
        <ele>1.58</ele>
        <time>2012-11-05T14:28:37Z</time>
      </trkpt>
      <trkpt lat="43.10814" lon="3.08735">
        <ele>1.1</ele>
        <time>2012-11-05T14:28:40Z</time>
      </trkpt>
      <trkpt lat="43.10808" lon="3.08743">
        <ele>1.1</ele>
        <time>2012-11-05T14:28:48Z</time>
      </trkpt>
      <trkpt lat="43.10804" lon="3.08762">
        <ele>0.62</ele>
        <time>2012-11-05T14:29:01Z</time>
      </trkpt>
      <trkpt lat="43.108" lon="3.08771">
        <ele>0.62</ele>
        <time>2012-11-05T14:29:09Z</time>
      </trkpt>
      <trkpt lat="43.10796" lon="3.08784">
        <ele>0.62</ele>
        <time>2012-11-05T14:29:18Z</time>
      </trkpt>
      <trkpt lat="43.10794" lon="3.08796">
        <ele>0.62</ele>
        <time>2012-11-05T14:29:26Z</time>
      </trkpt>
      <trkpt lat="43.10792" lon="3.08812">
        <ele>0.14</ele>
        <time>2012-11-05T14:29:36Z</time>
      </trkpt>
      <trkpt lat="43.10792" lon="3.08826">
        <ele>0.14</ele>
        <time>2012-11-05T14:29:45Z</time>
      </trkpt>
      <trkpt lat="43.10791" lon="3.08841">
        <ele>0.14</ele>
        <time>2012-11-05T14:29:54Z</time>
      </trkpt>
      <trkpt lat="43.10795" lon="3.08852">
        <ele>0.62</ele>
        <time>2012-11-05T14:30:05Z</time>
      </trkpt>
      <trkpt lat="43.10797" lon="3.08857">
        <ele>-0.34</ele>
        <time>2012-11-05T14:30:10Z</time>
      </trkpt>
      <trkpt lat="43.108" lon="3.08866">
        <ele>-0.34</ele>
        <time>2012-11-05T14:30:17Z</time>
      </trkpt>
      <trkpt lat="43.10805" lon="3.08868">
        <ele>1.1</ele>
        <time>2012-11-05T14:30:22Z</time>
      </trkpt>
      <trkpt lat="43.10808" lon="3.08868">
        <ele>1.1</ele>
        <time>2012-11-05T14:30:27Z</time>
      </trkpt>
      <trkpt lat="43.10813" lon="3.08875">
        <ele>0.62</ele>
        <time>2012-11-05T14:30:33Z</time>
      </trkpt>
      <trkpt lat="43.10824" lon="3.08896">
        <ele>-0.34</ele>
        <time>2012-11-05T14:30:48Z</time>
      </trkpt>
      <trkpt lat="43.1083" lon="3.08913">
        <ele>0.14</ele>
        <time>2012-11-05T14:31:00Z</time>
      </trkpt>
      <trkpt lat="43.10833" lon="3.08921">
        <ele>-0.34</ele>
        <time>2012-11-05T14:31:06Z</time>
      </trkpt>
      <trkpt lat="43.10834" lon="3.08925">
        <ele>-0.82</ele>
        <time>2012-11-05T14:31:09Z</time>
      </trkpt>
      <trkpt lat="43.10839" lon="3.08935">
        <ele>1.1</ele>
        <time>2012-11-05T14:31:16Z</time>
      </trkpt>
      <trkpt lat="43.10841" lon="3.0894">
        <ele>-2.75</ele>
        <time>2012-11-05T14:31:20Z</time>
      </trkpt>
      <trkpt lat="43.10845" lon="3.08948">
        <ele>-4.19</ele>
        <time>2012-11-05T14:31:28Z</time>
      </trkpt>
      <trkpt lat="43.10846" lon="3.08952">
        <ele>-2.27</ele>
        <time>2012-11-05T14:31:31Z</time>
      </trkpt>
      <trkpt lat="43.10849" lon="3.08957">
        <ele>-3.23</ele>
        <time>2012-11-05T14:31:36Z</time>
      </trkpt>
      <trkpt lat="43.10851" lon="3.08965">
        <ele>-1.79</ele>
        <time>2012-11-05T14:31:42Z</time>
      </trkpt>
      <trkpt lat="43.10853" lon="3.08969">
        <ele>-0.34</ele>
        <time>2012-11-05T14:31:45Z</time>
      </trkpt>
      <trkpt lat="43.10855" lon="3.08974">
        <ele>1.58</ele>
        <time>2012-11-05T14:31:50Z</time>
      </trkpt>
      <trkpt lat="43.10856" lon="3.08975">
        <ele>-1.79</ele>
        <time>2012-11-05T14:31:51Z</time>
      </trkpt>
      <trkpt lat="43.10856" lon="3.08977">
        <ele>-0.34</ele>
        <time>2012-11-05T14:31:52Z</time>
      </trkpt>
      <trkpt lat="43.10857" lon="3.0898">
        <ele>0.62</ele>
        <time>2012-11-05T14:31:54Z</time>
      </trkpt>
      <trkpt lat="43.10864" lon="3.08995">
        <ele>-1.3</ele>
        <time>2012-11-05T14:32:06Z</time>
      </trkpt>
      <trkpt lat="43.10866" lon="3.09001">
        <ele>3.98</ele>
        <time>2012-11-05T14:32:10Z</time>
      </trkpt>
    </trkseg>
  </trk>
</gpx>